createdAt,value
2022-09-22T00:01:11.866Z,18.10
2022-09-22T00:03:43.871Z,19.13
2022-09-22T00:06:13.323Z,19.83
2022-09-22T00:08:42.338Z,18.88
2022-09-22T00:11:14.027Z,20.17
2022-09-22T00:13:42.171Z,21.08
2022-09-22T00:16:10.749Z,16.98
2022-09-22T00:18:38.962Z,14.93
2022-09-22T00:21:08.119Z,15.45
2022-09-22T00:23:37.001Z,16.35
2022-09-22T00:26:05.583Z,16.60
2022-09-22T00:28:34.229Z,15.88
2022-09-22T00:31:05.478Z,18.17
2022-09-22T00:33:33.348Z,18.33
2022-09-22T00:36:02.130Z,19.15
2022-09-22T00:38:30.447Z,19.92
2022-09-22T00:41:00.259Z,21.17
2022-09-22T00:43:30.100Z,23.77
2022-09-22T00:46:24.216Z,23.27
2022-09-22T00:48:54.529Z,22.33
2022-09-22T00:51:23.596Z,20.15
2022-09-22T00:53:51.685Z,20.25
2022-09-22T00:56:22.082Z,20.58
2022-09-22T00:58:52.666Z,20.58
2022-09-22T01:01:20.602Z,21.45
2022-09-22T01:03:48.539Z,23.55
2022-09-22T01:06:18.735Z,23.60
2022-09-22T01:08:46.826Z,24.70
2022-09-22T01:11:15.659Z,21.50
2022-09-22T01:14:12.564Z,22.15
2022-09-22T01:16:40.492Z,21.85
2022-09-22T01:19:08.030Z,21.58
2022-09-22T01:21:52.180Z,22.02
2022-09-22T01:24:29.054Z,22.98
2022-09-22T01:27:15.301Z,24.17
2022-09-22T01:30:01.983Z,24.65
2022-09-22T01:32:43.676Z,21.08
2022-09-22T01:35:23.661Z,20.33
2022-09-22T01:38:07.954Z,20.88
2022-09-22T01:40:43.674Z,20.42
2022-09-22T01:43:33.508Z,24.73
2022-09-22T01:46:07.817Z,24.00
2022-09-22T01:48:36.228Z,21.67
2022-09-22T01:51:13.173Z,21.48
2022-09-22T01:53:47.658Z,20.98
2022-09-22T01:56:17.031Z,22.98
2022-09-22T01:58:49.248Z,22.52
2022-09-22T02:01:21.518Z,23.25
2022-09-22T02:03:56.587Z,23.58
2022-09-22T02:06:35.271Z,22.10
2022-09-22T02:09:11.353Z,27.48
2022-09-22T02:11:39.330Z,25.15
2022-09-22T02:14:07.563Z,23.98
2022-09-22T02:16:35.550Z,23.10
2022-09-22T02:19:13.177Z,24.27
2022-09-22T02:21:44.637Z,23.73
2022-09-22T02:24:32.232Z,25.15
2022-09-22T02:27:01.320Z,27.00
2022-09-22T02:29:31.863Z,25.77
2022-09-22T02:32:00.294Z,26.25
2022-09-22T02:34:28.568Z,25.77
2022-09-22T02:37:25.903Z,25.50
2022-09-22T02:40:05.306Z,24.00
2022-09-22T02:42:55.893Z,24.08
2022-09-22T02:45:37.742Z,24.90
2022-09-22T02:48:09.331Z,24.48
2022-09-22T02:50:37.244Z,26.63
2022-09-22T02:53:11.071Z,24.85
2022-09-22T02:55:39.160Z,24.00
2022-09-22T02:58:06.796Z,25.33
2022-09-22T03:00:34.478Z,26.48
2022-09-22T03:03:02.384Z,29.00
2022-09-22T03:05:30.219Z,25.67
2022-09-22T03:07:58.352Z,24.20
2022-09-22T03:10:26.550Z,25.67
2022-09-22T03:13:15.044Z,24.98
2022-09-22T03:15:42.282Z,26.08
2022-09-22T03:18:09.878Z,26.17
2022-09-22T03:20:37.539Z,26.85
2022-09-22T03:23:05.411Z,27.40
2022-09-22T03:25:33.018Z,27.83
2022-09-22T03:28:00.716Z,26.95
2022-09-22T03:30:28.603Z,27.50
2022-09-22T03:32:56.144Z,95.35
2022-09-22T03:35:23.692Z,69.35
2022-09-22T03:37:51.496Z,43.35
2022-09-22T03:40:19.343Z,50.05
2022-09-22T03:42:46.995Z,60.00
2022-09-22T03:45:15.463Z,67.93
2022-09-22T03:47:43.209Z,39.58
2022-09-22T03:50:11.356Z,72.25
2022-09-22T03:52:41.650Z,34.20
2022-09-22T03:55:10.048Z,35.28
2022-09-22T03:57:37.721Z,56.42
2022-09-22T04:00:06.017Z,39.30
2022-09-22T04:02:39.606Z,50.03
2022-09-22T04:05:07.675Z,46.58
2022-09-22T04:07:35.639Z,51.30
2022-09-22T04:10:04.149Z,66.82
2022-09-22T04:12:32.048Z,44.88
2022-09-22T04:14:59.835Z,57.75
2022-09-22T04:17:27.824Z,34.53
2022-09-22T04:19:56.039Z,31.65
2022-09-22T04:22:23.651Z,45.40
2022-09-22T04:24:51.397Z,44.85
2022-09-22T04:27:20.554Z,27.17
2022-09-22T04:29:48.806Z,29.85
2022-09-22T04:32:17.041Z,30.67
2022-09-22T04:34:44.858Z,45.15
2022-09-22T04:37:12.555Z,29.48
2022-09-22T04:39:40.598Z,30.00
2022-09-22T04:42:11.190Z,26.65
2022-09-22T04:44:38.717Z,28.35
2022-09-22T04:47:06.298Z,30.65
2022-09-22T04:49:34.079Z,29.38
2022-09-22T04:52:01.799Z,28.77
2022-09-22T04:54:29.349Z,30.00
2022-09-22T04:56:58.447Z,28.40
2022-09-22T04:59:45.870Z,27.05
2022-09-22T05:02:13.741Z,29.23
2022-09-22T05:04:41.447Z,29.35
2022-09-22T05:07:08.987Z,31.85
2022-09-22T05:09:36.974Z,30.00
2022-09-22T05:12:04.593Z,27.90
2022-09-22T05:14:34.615Z,29.58
2022-09-22T05:17:03.356Z,30.52
2022-09-22T05:19:30.940Z,30.42
2022-09-22T05:21:59.414Z,30.10
2022-09-22T05:24:28.883Z,30.35
2022-09-22T05:26:56.532Z,32.83
2022-09-22T05:29:27.933Z,30.25
2022-09-22T05:31:56.598Z,37.72
2022-09-22T05:34:25.941Z,33.90
2022-09-22T05:36:53.525Z,33.63
2022-09-22T05:39:21.833Z,33.45
2022-09-22T05:41:49.963Z,35.33
2022-09-22T05:44:17.612Z,33.42
2022-09-22T05:46:46.757Z,35.75
2022-09-22T05:49:14.503Z,35.85
2022-09-22T05:51:42.271Z,34.15
2022-09-22T05:54:10.393Z,34.50
2022-09-22T05:56:37.951Z,29.25
2022-09-22T05:59:05.492Z,30.40
2022-09-22T06:01:33.313Z,27.67
2022-09-22T06:04:00.901Z,28.70
2022-09-22T06:06:28.454Z,27.65
2022-09-22T06:08:56.449Z,29.65
2022-09-22T06:11:24.082Z,30.08
2022-09-22T06:13:52.048Z,26.92
2022-09-22T06:16:19.911Z,25.42
2022-09-22T06:18:48.087Z,24.50
2022-09-22T06:21:16.686Z,22.27
2022-09-22T06:23:44.830Z,23.50
2022-09-22T06:26:12.493Z,21.98
2022-09-22T06:28:40.121Z,23.13
2022-09-22T06:31:08.004Z,27.88
2022-09-22T06:33:35.944Z,22.15
2022-09-22T06:36:03.605Z,22.27
2022-09-22T06:38:32.021Z,25.45
2022-09-22T06:41:04.257Z,24.70
2022-09-22T06:43:32.984Z,23.98
2022-09-22T06:46:02.799Z,23.45
2022-09-22T06:48:32.025Z,23.15
2022-09-22T06:50:59.871Z,18.65
2022-09-22T06:53:27.832Z,18.20
2022-09-22T06:55:55.916Z,19.38
2022-09-22T06:58:24.280Z,19.20
2022-09-22T07:00:53.814Z,18.65
2022-09-22T07:03:22.983Z,17.30
2022-09-22T07:05:54.926Z,16.77
2022-09-22T07:08:23.894Z,17.20
2022-09-22T07:10:58.657Z,18.58
2022-09-22T07:13:29.828Z,18.33
2022-09-22T07:16:04.582Z,18.70
2022-09-22T07:18:32.418Z,16.92
2022-09-22T07:21:04.295Z,19.63
2022-09-22T07:23:35.621Z,20.25
2022-09-22T07:26:04.938Z,15.25
2022-09-22T07:28:33.181Z,14.43
2022-09-22T07:31:07.877Z,16.50
2022-09-22T07:33:36.496Z,18.00
2022-09-22T07:36:08.887Z,17.08
2022-09-22T07:38:37.473Z,17.80
2022-09-22T07:41:06.765Z,19.77
2022-09-22T07:43:34.873Z,16.05
2022-09-22T07:46:02.716Z,15.93
2022-09-22T07:48:37.597Z,16.48
2022-09-22T07:51:06.747Z,16.63
2022-09-22T07:53:34.360Z,17.15
2022-09-22T07:56:13.410Z,18.48
2022-09-22T07:58:48.361Z,18.33
2022-09-22T08:01:16.591Z,15.57
2022-09-22T08:03:45.665Z,17.58
2022-09-22T08:06:13.695Z,17.80
2022-09-22T08:08:46.141Z,18.00
2022-09-22T08:11:15.553Z,17.75
2022-09-22T08:13:44.106Z,17.35
2022-09-22T08:16:12.075Z,17.00
2022-09-22T08:18:39.885Z,21.98
2022-09-22T08:21:08.052Z,26.48
2022-09-22T08:23:37.482Z,16.52
2022-09-22T08:26:08.741Z,16.58
2022-09-22T08:28:36.354Z,17.52
2022-09-22T08:31:04.822Z,16.17
2022-09-22T08:33:32.951Z,19.33
2022-09-22T08:36:04.472Z,17.08
2022-09-22T08:38:33.681Z,18.35
2022-09-22T08:41:27.776Z,30.98
2022-09-22T08:44:01.635Z,26.90
2022-09-22T08:46:33.604Z,23.00
2022-09-22T08:51:53.410Z,19.50
2022-09-22T08:54:23.179Z,16.48
2022-09-22T08:56:55.113Z,13.77
2022-09-22T08:59:24.143Z,12.52
2022-09-22T09:02:11.472Z,12.50
2022-09-22T09:04:42.468Z,12.80
2022-09-22T09:07:19.419Z,12.77
2022-09-22T09:09:57.607Z,11.02
2022-09-22T09:12:31.030Z,9.88
2022-09-22T09:14:58.813Z,11.82
2022-09-22T09:17:26.525Z,11.23
2022-09-22T09:19:56.281Z,9.90
2022-09-22T09:22:28.145Z,11.48
2022-09-22T09:27:51.720Z,10.82
2022-09-22T09:30:20.767Z,9.05
2022-09-22T09:32:56.576Z,6.82
2022-09-22T09:35:26.686Z,6.40
2022-09-22T09:37:58.114Z,6.90
2022-09-22T09:40:26.047Z,6.70
2022-09-22T09:43:03.612Z,5.20
2022-09-22T09:45:45.533Z,4.57
2022-09-22T09:48:31.890Z,5.30
2022-09-22T09:51:06.011Z,4.53
2022-09-22T09:53:40.869Z,4.80
2022-09-22T09:56:15.102Z,5.28
2022-09-22T09:59:14.287Z,5.22
2022-09-22T10:01:42.662Z,6.45
2022-09-22T10:04:18.533Z,7.45
2022-09-22T10:06:47.192Z,7.13
2022-09-22T10:09:28.651Z,6.50
2022-09-22T10:12:03.324Z,5.07
2022-09-22T10:14:32.612Z,5.32
2022-09-22T10:17:00.767Z,5.15
2022-09-22T10:19:34.559Z,5.28
2022-09-22T10:22:28.509Z,5.78
2022-09-22T10:25:00.430Z,8.13
2022-09-22T10:27:29.711Z,6.90
2022-09-22T10:30:13.308Z,6.85
2022-09-22T10:32:42.515Z,6.88
2022-09-22T10:35:25.885Z,7.00
2022-09-22T10:37:56.934Z,6.05
2022-09-22T10:40:25.922Z,5.65
2022-09-22T10:42:56.708Z,5.97
2022-09-22T10:45:31.016Z,5.45
2022-09-22T10:48:00.359Z,5.20
2022-09-22T10:50:31.341Z,5.85
2022-09-22T10:53:18.983Z,6.13
2022-09-22T10:55:46.756Z,8.63
2022-09-22T10:58:40.946Z,6.72
2022-09-22T11:01:19.169Z,3.88
2022-09-22T11:04:13.468Z,4.10
2022-09-22T11:07:05.561Z,4.22
2022-09-22T11:09:54.525Z,3.00
2022-09-22T11:13:02.403Z,3.30
2022-09-22T11:15:30.804Z,3.60
2022-09-22T11:18:26.802Z,2.90
2022-09-22T11:21:06.160Z,2.88
2022-09-22T11:23:46.664Z,3.05
2022-09-22T11:26:41.151Z,3.65
2022-09-22T11:29:26.628Z,3.30
2022-09-22T11:32:01.520Z,3.30
2022-09-22T11:34:30.199Z,2.90
2022-09-22T11:37:25.992Z,3.13
2022-09-22T11:40:00.429Z,2.28
2022-09-22T11:42:47.700Z,2.75
2022-09-22T11:45:31.316Z,2.50
2022-09-22T11:47:59.031Z,3.22
2022-09-22T11:50:26.784Z,3.30
2022-09-22T11:53:02.956Z,1.92
2022-09-22T11:55:40.316Z,3.60
2022-09-22T11:58:12.179Z,3.25
2022-09-22T12:00:42.969Z,1.70
2022-09-22T12:03:26.139Z,2.15
2022-09-22T12:05:56.908Z,1.20
2022-09-22T12:08:26.627Z,1.92
2022-09-22T12:10:55.282Z,3.70
2022-09-22T12:13:24.340Z,2.25
2022-09-22T12:15:52.030Z,1.40
2022-09-22T12:18:19.796Z,3.88
2022-09-22T12:21:02.329Z,1.90
2022-09-22T12:23:45.320Z,1.80
2022-09-22T12:26:25.288Z,1.80
2022-09-22T12:28:52.956Z,4.03
2022-09-22T12:31:21.548Z,2.55
2022-09-22T12:33:54.027Z,1.77
2022-09-22T12:36:36.245Z,10.07
2022-09-22T12:39:13.964Z,3.95
2022-09-22T12:41:57.879Z,4.00
2022-09-22T12:44:45.944Z,21.30
2022-09-22T12:47:16.682Z,16.27
2022-09-22T12:49:57.510Z,11.98
2022-09-22T12:52:41.094Z,2.85
2022-09-22T12:55:22.800Z,1.90
2022-09-22T13:00:30.699Z,15.32
2022-09-22T13:03:01.636Z,7.25
2022-09-22T13:05:29.248Z,12.65
2022-09-22T13:07:56.902Z,4.88
2022-09-22T13:10:24.737Z,2.85
2022-09-22T13:13:07.429Z,2.58
2022-09-22T13:15:47.567Z,1.80
2022-09-22T13:18:33.940Z,3.08
2022-09-22T13:21:19.789Z,2.95
2022-09-22T13:23:50.202Z,1.98
2022-09-22T13:26:21.256Z,1.90
2022-09-22T13:29:07.621Z,2.60
2022-09-22T13:31:38.615Z,8.00
2022-09-22T13:34:18.367Z,11.27
2022-09-22T13:36:46.407Z,15.88
2022-09-22T13:39:24.836Z,6.03
2022-09-22T13:41:53.962Z,2.38
2022-09-22T13:44:25.094Z,3.65
2022-09-22T13:46:53.871Z,5.80
2022-09-22T13:49:32.226Z,6.20
2022-09-22T13:52:02.379Z,5.30
2022-09-22T13:54:32.658Z,4.50
2022-09-22T13:57:01.380Z,5.13
2022-09-22T13:59:34.530Z,6.13
2022-09-22T14:02:06.257Z,5.30
2022-09-22T14:07:04.013Z,6.97
2022-09-22T14:09:32.008Z,7.50
2022-09-22T14:12:01.471Z,5.55
2022-09-22T14:14:29.302Z,4.28
2022-09-22T14:17:14.696Z,4.30
2022-09-22T14:19:48.634Z,3.92
2022-09-22T14:22:18.586Z,5.03
2022-09-22T14:27:24.466Z,4.20
2022-09-22T14:29:53.733Z,3.53
2022-09-22T14:32:32.770Z,3.00
2022-09-22T14:35:03.485Z,3.45
2022-09-22T14:37:39.195Z,3.00
2022-09-22T14:40:17.622Z,4.60
2022-09-22T14:42:56.451Z,3.90
2022-09-22T14:45:24.594Z,3.33
2022-09-22T14:48:11.245Z,3.20
2022-09-22T14:50:45.403Z,2.20
2022-09-22T14:53:14.203Z,2.92
2022-09-22T14:55:52.590Z,2.92
2022-09-22T14:58:24.689Z,6.82
2022-09-22T15:01:14.922Z,3.15
2022-09-22T15:03:44.873Z,3.67
2022-09-22T15:06:14.394Z,3.30
2022-09-22T15:08:43.165Z,3.72
2022-09-22T15:11:11.602Z,3.63
2022-09-22T15:13:39.461Z,2.95
2022-09-22T15:16:08.133Z,2.75
2022-09-22T15:18:35.810Z,4.32
2022-09-22T15:21:12.692Z,3.45
2022-09-22T15:23:46.949Z,3.33
2022-09-22T15:26:25.735Z,4.38
2022-09-22T15:28:54.621Z,4.03
2022-09-22T15:31:26.958Z,4.30
2022-09-22T15:33:56.545Z,4.93
2022-09-22T15:36:25.779Z,4.57
2022-09-22T15:38:56.234Z,4.15
2022-09-22T15:41:23.819Z,12.18
2022-09-22T15:43:51.893Z,16.13
2022-09-22T15:46:31.560Z,12.05
2022-09-22T15:49:02.320Z,27.10
2022-09-22T15:51:33.400Z,22.10
2022-09-22T15:54:01.377Z,21.25
2022-09-22T15:56:30.387Z,13.75
2022-09-22T15:59:00.905Z,19.90
2022-09-22T16:01:29.741Z,15.32
2022-09-22T16:04:00.171Z,27.02
2022-09-22T16:06:28.476Z,44.47
2022-09-22T16:08:56.407Z,14.63
2022-09-22T16:11:32.039Z,10.68
2022-09-22T16:14:03.547Z,16.33
2022-09-22T16:16:32.410Z,14.52
2022-09-22T16:19:00.471Z,12.45
2022-09-22T16:21:35.715Z,9.60
2022-09-22T16:24:09.219Z,7.18
2022-09-22T16:26:39.716Z,24.55
2022-09-22T16:29:08.797Z,22.35
2022-09-22T16:31:38.063Z,25.05
2022-09-22T16:34:07.093Z,33.97
2022-09-22T16:36:36.094Z,51.55
2022-09-22T16:39:04.654Z,34.85
2022-09-22T16:41:33.487Z,29.48
2022-09-22T16:44:01.645Z,25.35
2022-09-22T16:46:30.553Z,26.80
2022-09-22T16:49:05.702Z,19.17
2022-09-22T16:51:36.323Z,18.80
2022-09-22T16:54:05.606Z,15.18
2022-09-22T16:56:34.526Z,16.92
2022-09-22T16:59:03.074Z,22.80
2022-09-22T17:01:32.743Z,20.95
2022-09-22T17:04:00.668Z,24.63
2022-09-22T17:06:29.051Z,15.57
2022-09-22T17:08:58.065Z,19.75
2022-09-22T17:11:31.343Z,33.97
2022-09-22T17:14:03.125Z,29.67
2022-09-22T17:19:02.466Z,17.83
2022-09-22T17:21:34.399Z,23.45
2022-09-22T17:26:31.470Z,44.03
2022-09-22T17:28:59.918Z,30.98
2022-09-22T17:31:28.139Z,28.92
2022-09-22T17:33:56.030Z,25.38
2022-09-22T17:36:24.779Z,25.77
2022-09-22T17:38:54.753Z,32.58
2022-09-22T17:41:23.820Z,28.67
2022-09-22T17:43:55.872Z,91.97
2022-09-22T17:49:10.403Z,26.92
2022-09-22T17:51:40.266Z,34.65
2022-09-22T17:54:37.613Z,36.45
2022-09-22T17:57:06.418Z,31.90
2022-09-22T17:59:35.017Z,38.35
2022-09-22T18:02:04.844Z,38.78
2022-09-22T18:04:33.208Z,42.15
2022-09-22T18:07:02.740Z,37.22
2022-09-22T18:09:32.202Z,35.70
2022-09-22T18:12:00.252Z,29.42
2022-09-22T18:14:28.874Z,29.23
2022-09-22T18:16:56.657Z,38.03
2022-09-22T18:19:29.177Z,30.52
2022-09-22T18:21:57.399Z,30.98
2022-09-22T18:24:25.736Z,22.70
2022-09-22T18:26:55.281Z,18.00
2022-09-22T18:29:23.185Z,28.55
2022-09-22T18:31:51.383Z,23.48
2022-09-22T18:34:20.272Z,22.55
2022-09-22T18:36:48.342Z,19.23
2022-09-22T18:39:17.504Z,20.83
2022-09-22T18:41:45.144Z,20.92
2022-09-22T18:44:13.457Z,21.67
2022-09-22T18:46:46.592Z,19.48
2022-09-22T18:49:14.901Z,15.55
2022-09-22T18:51:49.257Z,16.95
2022-09-22T18:54:19.458Z,18.40
2022-09-22T18:56:48.227Z,53.47
2022-09-22T18:59:20.095Z,41.33
2022-09-22T19:01:49.754Z,175.07
2022-09-22T19:04:19.405Z,98.40
2022-09-22T19:07:06.608Z,34.35
2022-09-22T19:09:34.726Z,40.92
2022-09-22T19:12:05.905Z,28.73
2022-09-22T19:14:36.365Z,22.63
2022-09-22T19:17:04.781Z,24.17
2022-09-22T19:19:32.704Z,24.35
2022-09-22T19:22:00.525Z,24.77
2022-09-22T19:24:28.494Z,25.75
2022-09-22T19:26:56.197Z,24.45
2022-09-22T19:29:24.119Z,24.17
2022-09-22T19:31:52.147Z,15.98
2022-09-22T19:34:19.874Z,12.70
2022-09-22T19:36:47.662Z,12.48
2022-09-22T19:39:15.649Z,15.30
2022-09-22T19:41:48.125Z,13.85
2022-09-22T19:44:16.572Z,17.92
2022-09-22T19:46:45.418Z,13.65
2022-09-22T19:49:13.289Z,14.68
2022-09-22T19:51:42.517Z,11.65
2022-09-22T19:54:10.316Z,10.75
2022-09-22T19:56:37.877Z,14.88
2022-09-22T19:59:07.287Z,14.90
2022-09-22T20:01:37.582Z,14.88
2022-09-22T20:04:06.177Z,19.77
2022-09-22T20:06:34.719Z,31.27
2022-09-22T20:09:02.818Z,19.08
2022-09-22T20:11:31.958Z,26.17
2022-09-22T20:14:18.580Z,15.90
2022-09-22T20:16:47.103Z,16.80
2022-09-22T20:19:15.051Z,14.20
2022-09-22T20:21:43.431Z,13.80
2022-09-22T20:24:12.888Z,14.13
2022-09-22T20:26:41.878Z,17.65
2022-09-22T20:29:10.984Z,19.05
2022-09-22T20:31:38.693Z,16.55
2022-09-22T20:34:06.836Z,16.65
2022-09-22T20:36:37.148Z,15.77
2022-09-22T20:39:05.702Z,16.98
2022-09-22T20:41:33.884Z,19.80
2022-09-22T20:44:01.613Z,15.48
2022-09-22T20:46:29.259Z,14.60
2022-09-22T20:49:00.183Z,17.30
2022-09-22T20:51:28.476Z,17.38
2022-09-22T20:53:56.292Z,15.27
2022-09-22T20:56:24.255Z,13.88
2022-09-22T20:58:51.852Z,12.68
2022-09-22T21:01:19.593Z,13.48
2022-09-22T21:03:47.796Z,13.07
2022-09-22T21:06:15.978Z,11.98
2022-09-22T21:09:03.027Z,10.93
2022-09-22T21:11:31.513Z,9.60
2022-09-22T21:14:02.970Z,10.35
2022-09-22T21:16:31.300Z,8.57
2022-09-22T21:19:02.363Z,10.63
2022-09-22T21:21:31.240Z,11.18
2022-09-22T21:24:02.055Z,10.10
2022-09-22T21:26:30.601Z,8.88
2022-09-22T21:28:59.535Z,9.70
2022-09-22T21:31:27.586Z,9.52
2022-09-22T21:33:55.785Z,9.90
2022-09-22T21:36:24.476Z,11.30
2022-09-22T21:38:56.454Z,10.60
2022-09-22T21:41:26.204Z,10.90
2022-09-22T21:43:54.009Z,11.75
2022-09-22T21:46:31.061Z,10.73
2022-09-22T21:49:02.452Z,11.32
2022-09-22T21:51:34.360Z,11.35
2022-09-22T21:54:03.073Z,10.18
2022-09-22T21:56:31.161Z,8.65
2022-09-22T21:59:02.614Z,8.82
2022-09-22T22:01:31.991Z,8.48
2022-09-22T22:04:00.242Z,9.75
2022-09-22T22:06:32.631Z,9.38
2022-09-22T22:09:04.772Z,8.20
2022-09-22T22:11:33.698Z,8.10
2022-09-22T22:14:02.395Z,8.30
2022-09-22T22:17:20.264Z,10.50
2022-09-22T22:19:48.126Z,16.42
2022-09-22T22:22:15.781Z,13.07
2022-09-22T22:24:43.772Z,12.20
2022-09-22T22:27:13.683Z,11.57
2022-09-22T22:29:42.744Z,9.82
2022-09-22T22:32:11.123Z,10.20
2022-09-22T22:34:38.977Z,9.38
2022-09-22T22:37:09.408Z,8.15
2022-09-22T22:39:38.326Z,9.65
2022-09-22T22:42:07.074Z,9.32
2022-09-22T22:44:35.326Z,9.35
2022-09-22T22:47:02.980Z,8.77
2022-09-22T22:49:31.449Z,9.27
2022-09-22T22:51:59.074Z,9.10
2022-09-22T22:54:26.972Z,10.43
2022-09-22T22:56:54.743Z,11.20
2022-09-22T22:59:22.303Z,10.32
2022-09-22T23:01:50.063Z,11.52
2022-09-22T23:04:18.250Z,9.85
2022-09-22T23:06:46.232Z,9.82
2022-09-22T23:09:15.363Z,9.25
2022-09-22T23:11:46.350Z,10.73
2022-09-22T23:14:15.980Z,10.82
2022-09-22T23:16:45.581Z,9.57
2022-09-22T23:19:14.688Z,12.18
2022-09-22T23:21:42.547Z,13.45
2022-09-22T23:24:10.576Z,9.82
2022-09-22T23:26:38.244Z,8.63
2022-09-22T23:29:06.819Z,9.43
2022-09-22T23:31:34.769Z,9.50
2022-09-22T23:34:02.397Z,13.32
2022-09-22T23:36:30.096Z,9.32
2022-09-22T23:39:03.571Z,10.80
2022-09-22T23:41:32.563Z,9.77
2022-09-22T23:44:00.566Z,9.73
2022-09-22T23:46:28.265Z,10.30
2022-09-22T23:48:56.165Z,10.93
2022-09-22T23:51:24.129Z,10.82
2022-09-22T23:53:51.897Z,10.77
2022-09-22T23:56:19.613Z,11.45
2022-09-22T23:58:47.664Z,11.23
